sensor_id;sensor_type;location;lat;lon;timestamp;temperature;humidity
44431;DHT22;30135;47.866;-4.222;2022-09-02T00:00:53;20.30;92.80
44431;DHT22;30135;47.866;-4.222;2022-09-02T00:03:26;20.30;92.80
44431;DHT22;30135;47.866;-4.222;2022-09-02T00:05:54;20.30;92.60
44431;DHT22;30135;47.866;-4.222;2022-09-02T00:08:23;20.30;92.50
44431;DHT22;30135;47.866;-4.222;2022-09-02T00:10:53;20.30;92.60
44431;DHT22;30135;47.866;-4.222;2022-09-02T00:13:21;20.30;92.70
44431;DHT22;30135;47.866;-4.222;2022-09-02T00:15:50;20.30;92.70
44431;DHT22;30135;47.866;-4.222;2022-09-02T00:18:43;20.30;92.70
44431;DHT22;30135;47.866;-4.222;2022-09-02T00:21:14;20.30;92.70
44431;DHT22;30135;47.866;-4.222;2022-09-02T00:23:45;20.30;92.70
44431;DHT22;30135;47.866;-4.222;2022-09-02T00:26:11;20.30;92.70
44431;DHT22;30135;47.866;-4.222;2022-09-02T00:28:41;20.30;92.70
44431;DHT22;30135;47.866;-4.222;2022-09-02T00:31:11;20.30;92.70
44431;DHT22;30135;47.866;-4.222;2022-09-02T00:33:38;20.30;92.70
44431;DHT22;30135;47.866;-4.222;2022-09-02T00:36:06;20.30;92.80
44431;DHT22;30135;47.866;-4.222;2022-09-02T00:38:34;20.30;92.80
44431;DHT22;30135;47.866;-4.222;2022-09-02T00:41:02;20.30;92.80
44431;DHT22;30135;47.866;-4.222;2022-09-02T00:43:45;20.30;92.70
44431;DHT22;30135;47.866;-4.222;2022-09-02T00:46:14;20.30;92.80
44431;DHT22;30135;47.866;-4.222;2022-09-02T00:51:29;20.20;92.70
44431;DHT22;30135;47.866;-4.222;2022-09-02T00:53:59;20.30;92.70
44431;DHT22;30135;47.866;-4.222;2022-09-02T00:56:28;20.30;92.70
44431;DHT22;30135;47.866;-4.222;2022-09-02T00:58:55;20.30;92.80
44431;DHT22;30135;47.866;-4.222;2022-09-02T01:01:24;20.20;92.70
44431;DHT22;30135;47.866;-4.222;2022-09-02T01:03:52;20.20;92.80
44431;DHT22;30135;47.866;-4.222;2022-09-02T01:06:19;20.20;92.80
44431;DHT22;30135;47.866;-4.222;2022-09-02T01:09:05;20.20;92.70
44431;DHT22;30135;47.866;-4.222;2022-09-02T01:11:42;20.20;92.80
44431;DHT22;30135;47.866;-4.222;2022-09-02T01:14:13;20.20;92.80
44431;DHT22;30135;47.866;-4.222;2022-09-02T01:16:43;20.20;92.80
44431;DHT22;30135;47.866;-4.222;2022-09-02T01:19:22;20.20;92.80
44431;DHT22;30135;47.866;-4.222;2022-09-02T01:21:54;20.20;92.80
44431;DHT22;30135;47.866;-4.222;2022-09-02T01:24:29;20.20;92.80
44431;DHT22;30135;47.866;-4.222;2022-09-02T01:26:57;20.20;92.80
44431;DHT22;30135;47.866;-4.222;2022-09-02T01:29:25;20.20;92.80
44431;DHT22;30135;47.866;-4.222;2022-09-02T01:31:55;20.20;92.80
44431;DHT22;30135;47.866;-4.222;2022-09-02T01:34:22;20.20;92.80
44431;DHT22;30135;47.866;-4.222;2022-09-02T01:36:48;20.20;92.80
44431;DHT22;30135;47.866;-4.222;2022-09-02T01:39:17;20.20;92.80
44431;DHT22;30135;47.866;-4.222;2022-09-02T01:41:44;20.20;92.80
44431;DHT22;30135;47.866;-4.222;2022-09-02T01:44:11;20.20;92.80
44431;DHT22;30135;47.866;-4.222;2022-09-02T01:46:42;20.20;92.80
44431;DHT22;30135;47.866;-4.222;2022-09-02T01:49:09;20.10;92.80
44431;DHT22;30135;47.866;-4.222;2022-09-02T01:51:36;20.10;92.80
44431;DHT22;30135;47.866;-4.222;2022-09-02T01:54:06;20.20;92.80
44431;DHT22;30135;47.866;-4.222;2022-09-02T01:56:32;20.10;92.90
44431;DHT22;30135;47.866;-4.222;2022-09-02T01:58:59;20.10;92.80
44431;DHT22;30135;47.866;-4.222;2022-09-02T02:01:27;20.10;92.80
44431;DHT22;30135;47.866;-4.222;2022-09-02T02:03:55;20.10;92.90
44431;DHT22;30135;47.866;-4.222;2022-09-02T02:06:25;20.10;92.90
44431;DHT22;30135;47.866;-4.222;2022-09-02T02:09:15;20.10;92.90
44431;DHT22;30135;47.866;-4.222;2022-09-02T02:11:43;20.10;92.90
44431;DHT22;30135;47.866;-4.222;2022-09-02T02:14:10;20.10;92.90
44431;DHT22;30135;47.866;-4.222;2022-09-02T02:16:38;20.00;92.80
44431;DHT22;30135;47.866;-4.222;2022-09-02T02:19:07;20.10;92.90
44431;DHT22;30135;47.866;-4.222;2022-09-02T02:21:33;20.00;92.90
44431;DHT22;30135;47.866;-4.222;2022-09-02T02:24:01;20.00;92.90
44431;DHT22;30135;47.866;-4.222;2022-09-02T02:26:31;20.00;92.90
44431;DHT22;30135;47.866;-4.222;2022-09-02T02:28:58;20.00;92.90
44431;DHT22;30135;47.866;-4.222;2022-09-02T02:31:25;20.00;92.90
44431;DHT22;30135;47.866;-4.222;2022-09-02T02:33:51;20.00;93.30
44431;DHT22;30135;47.866;-4.222;2022-09-02T02:36:19;19.90;93.00
44431;DHT22;30135;47.866;-4.222;2022-09-02T02:38:49;20.00;93.00
44431;DHT22;30135;47.866;-4.222;2022-09-02T02:41:15;20.00;93.00
44431;DHT22;30135;47.866;-4.222;2022-09-02T02:43:46;20.00;93.00
44431;DHT22;30135;47.866;-4.222;2022-09-02T02:46:15;20.00;93.10
44431;DHT22;30135;47.866;-4.222;2022-09-02T02:48:43;19.90;93.00
44431;DHT22;30135;47.866;-4.222;2022-09-02T02:51:10;19.90;93.10
44431;DHT22;30135;47.866;-4.222;2022-09-02T02:53:39;19.90;93.00
44431;DHT22;30135;47.866;-4.222;2022-09-02T02:56:07;19.90;93.10
44431;DHT22;30135;47.866;-4.222;2022-09-02T02:58:35;19.90;93.00
44431;DHT22;30135;47.866;-4.222;2022-09-02T03:01:04;19.90;93.10
44431;DHT22;30135;47.866;-4.222;2022-09-02T03:03:38;19.90;93.10
44431;DHT22;30135;47.866;-4.222;2022-09-02T03:06:09;19.90;93.10
44431;DHT22;30135;47.866;-4.222;2022-09-02T03:08:38;19.90;93.10
44431;DHT22;30135;47.866;-4.222;2022-09-02T03:11:06;19.90;93.20
44431;DHT22;30135;47.866;-4.222;2022-09-02T03:13:35;19.90;93.10
44431;DHT22;30135;47.866;-4.222;2022-09-02T03:16:03;19.90;93.10
44431;DHT22;30135;47.866;-4.222;2022-09-02T03:18:31;19.90;93.10
44431;DHT22;30135;47.866;-4.222;2022-09-02T03:20:58;19.90;93.10
44431;DHT22;30135;47.866;-4.222;2022-09-02T03:23:25;19.90;93.10
44431;DHT22;30135;47.866;-4.222;2022-09-02T03:25:53;19.90;93.10
44431;DHT22;30135;47.866;-4.222;2022-09-02T03:28:21;19.90;93.10
44431;DHT22;30135;47.866;-4.222;2022-09-02T03:30:50;19.90;93.10
44431;DHT22;30135;47.866;-4.222;2022-09-02T03:33:17;19.90;93.10
44431;DHT22;30135;47.866;-4.222;2022-09-02T03:35:43;19.90;93.10
44431;DHT22;30135;47.866;-4.222;2022-09-02T03:38:12;19.90;93.10
44431;DHT22;30135;47.866;-4.222;2022-09-02T03:40:40;19.90;93.10
44431;DHT22;30135;47.866;-4.222;2022-09-02T03:43:06;19.90;93.10
44431;DHT22;30135;47.866;-4.222;2022-09-02T03:45:32;19.90;93.10
44431;DHT22;30135;47.866;-4.222;2022-09-02T03:47:58;19.90;93.10
44431;DHT22;30135;47.866;-4.222;2022-09-02T03:50:26;19.90;93.10
44431;DHT22;30135;47.866;-4.222;2022-09-02T03:52:57;19.80;93.00
44431;DHT22;30135;47.866;-4.222;2022-09-02T03:55:31;19.80;93.00
44431;DHT22;30135;47.866;-4.222;2022-09-02T03:57:58;19.80;93.00
44431;DHT22;30135;47.866;-4.222;2022-09-02T04:00:24;19.80;93.00
44431;DHT22;30135;47.866;-4.222;2022-09-02T04:02:57;19.80;93.10
44431;DHT22;30135;47.866;-4.222;2022-09-02T04:05:26;19.80;93.10
44431;DHT22;30135;47.866;-4.222;2022-09-02T04:07:53;19.80;93.00
44431;DHT22;30135;47.866;-4.222;2022-09-02T04:10:20;19.80;93.00
44431;DHT22;30135;47.866;-4.222;2022-09-02T04:12:46;19.80;93.00
44431;DHT22;30135;47.866;-4.222;2022-09-02T04:15:13;19.80;93.10
44431;DHT22;30135;47.866;-4.222;2022-09-02T04:17:49;19.80;93.10
44431;DHT22;30135;47.866;-4.222;2022-09-02T04:20:17;19.80;93.10
44431;DHT22;30135;47.866;-4.222;2022-09-02T04:22:43;19.80;93.10
44431;DHT22;30135;47.866;-4.222;2022-09-02T04:25:10;19.80;93.10
44431;DHT22;30135;47.866;-4.222;2022-09-02T04:27:36;19.80;93.10
44431;DHT22;30135;47.866;-4.222;2022-09-02T04:30:03;19.70;93.10
44431;DHT22;30135;47.866;-4.222;2022-09-02T04:32:30;19.80;93.20
44431;DHT22;30135;47.866;-4.222;2022-09-02T04:34:57;19.80;93.20
44431;DHT22;30135;47.866;-4.222;2022-09-02T04:37:24;19.70;93.50
44431;DHT22;30135;47.866;-4.222;2022-09-02T04:39:52;19.70;93.20
44431;DHT22;30135;47.866;-4.222;2022-09-02T04:42:19;19.80;93.20
44431;DHT22;30135;47.866;-4.222;2022-09-02T04:44:46;19.70;93.20
44431;DHT22;30135;47.866;-4.222;2022-09-02T04:47:12;19.70;93.20
44431;DHT22;30135;47.866;-4.222;2022-09-02T04:49:39;19.70;93.20
44431;DHT22;30135;47.866;-4.222;2022-09-02T04:52:07;19.70;93.20
44431;DHT22;30135;47.866;-4.222;2022-09-02T04:54:35;19.70;93.20
44431;DHT22;30135;47.866;-4.222;2022-09-02T04:57:02;19.70;93.20
44431;DHT22;30135;47.866;-4.222;2022-09-02T04:59:29;19.70;93.30
44431;DHT22;30135;47.866;-4.222;2022-09-02T05:01:56;19.70;93.20
44431;DHT22;30135;47.866;-4.222;2022-09-02T05:04:22;19.70;93.30
44431;DHT22;30135;47.866;-4.222;2022-09-02T05:06:48;19.70;93.20
44431;DHT22;30135;47.866;-4.222;2022-09-02T05:09:15;19.70;93.30
44431;DHT22;30135;47.866;-4.222;2022-09-02T05:11:41;19.70;93.30
44431;DHT22;30135;47.866;-4.222;2022-09-02T05:14:08;19.70;93.40
44431;DHT22;30135;47.866;-4.222;2022-09-02T05:16:35;19.70;93.40
44431;DHT22;30135;47.866;-4.222;2022-09-02T05:19:05;19.70;93.40
44431;DHT22;30135;47.866;-4.222;2022-09-02T05:21:38;19.70;93.40
44431;DHT22;30135;47.866;-4.222;2022-09-02T05:24:08;19.70;93.40
44431;DHT22;30135;47.866;-4.222;2022-09-02T05:26:36;19.70;93.40
44431;DHT22;30135;47.866;-4.222;2022-09-02T05:29:03;19.70;93.40
44431;DHT22;30135;47.866;-4.222;2022-09-02T05:31:36;19.70;93.40
44431;DHT22;30135;47.866;-4.222;2022-09-02T05:34:05;19.70;93.40
44431;DHT22;30135;47.866;-4.222;2022-09-02T05:36:31;19.70;93.40
44431;DHT22;30135;47.866;-4.222;2022-09-02T05:39:04;19.70;93.40
44431;DHT22;30135;47.866;-4.222;2022-09-02T05:41:31;19.70;93.40
44431;DHT22;30135;47.866;-4.222;2022-09-02T05:43:58;19.70;93.50
44431;DHT22;30135;47.866;-4.222;2022-09-02T05:46:25;19.70;93.50
44431;DHT22;30135;47.866;-4.222;2022-09-02T05:48:54;19.70;93.50
44431;DHT22;30135;47.866;-4.222;2022-09-02T05:51:31;19.70;93.50
44431;DHT22;30135;47.866;-4.222;2022-09-02T05:54:08;19.70;93.50
44431;DHT22;30135;47.866;-4.222;2022-09-02T05:56:38;19.70;93.80
44431;DHT22;30135;47.866;-4.222;2022-09-02T05:59:05;19.70;93.50
44431;DHT22;30135;47.866;-4.222;2022-09-02T06:01:33;19.70;93.60
44431;DHT22;30135;47.866;-4.222;2022-09-02T06:04:04;19.70;93.80
44431;DHT22;30135;47.866;-4.222;2022-09-02T06:06:34;19.70;93.50
44431;DHT22;30135;47.866;-4.222;2022-09-02T06:09:07;19.70;93.60
44431;DHT22;30135;47.866;-4.222;2022-09-02T06:11:37;19.70;93.60
44431;DHT22;30135;47.866;-4.222;2022-09-02T06:14:07;19.70;93.60
44431;DHT22;30135;47.866;-4.222;2022-09-02T06:16:34;19.70;93.60
44431;DHT22;30135;47.866;-4.222;2022-09-02T06:19:01;19.70;93.60
44431;DHT22;30135;47.866;-4.222;2022-09-02T06:21:31;19.70;93.60
44431;DHT22;30135;47.866;-4.222;2022-09-02T06:23:58;19.80;93.60
44431;DHT22;30135;47.866;-4.222;2022-09-02T06:26:27;19.80;93.60
44431;DHT22;30135;47.866;-4.222;2022-09-02T06:28:55;19.70;93.60
44431;DHT22;30135;47.866;-4.222;2022-09-02T06:31:25;19.70;93.70
44431;DHT22;30135;47.866;-4.222;2022-09-02T06:33:54;19.80;93.70
44431;DHT22;30135;47.866;-4.222;2022-09-02T06:36:23;19.70;93.70
44431;DHT22;30135;47.866;-4.222;2022-09-02T06:38:52;19.70;93.70
44431;DHT22;30135;47.866;-4.222;2022-09-02T06:41:21;19.80;93.70
44431;DHT22;30135;47.866;-4.222;2022-09-02T06:43:52;19.70;93.60
44431;DHT22;30135;47.866;-4.222;2022-09-02T06:46:22;19.80;93.60
44431;DHT22;30135;47.866;-4.222;2022-09-02T06:48:52;19.80;93.60
44431;DHT22;30135;47.866;-4.222;2022-09-02T06:51:21;19.80;93.70
44431;DHT22;30135;47.866;-4.222;2022-09-02T06:53:50;19.80;93.70
44431;DHT22;30135;47.866;-4.222;2022-09-02T06:56:17;19.80;93.70
44431;DHT22;30135;47.866;-4.222;2022-09-02T06:58:48;19.80;93.70
44431;DHT22;30135;47.866;-4.222;2022-09-02T07:01:22;19.80;93.60
44431;DHT22;30135;47.866;-4.222;2022-09-02T07:03:50;19.80;93.60
44431;DHT22;30135;47.866;-4.222;2022-09-02T07:06:46;19.80;93.50
44431;DHT22;30135;47.866;-4.222;2022-09-02T07:09:16;19.80;93.60
44431;DHT22;30135;47.866;-4.222;2022-09-02T07:11:44;19.80;93.60
44431;DHT22;30135;47.866;-4.222;2022-09-02T07:14:14;19.80;93.70
44431;DHT22;30135;47.866;-4.222;2022-09-02T07:16:46;19.90;93.70
44431;DHT22;30135;47.866;-4.222;2022-09-02T07:19:17;19.90;93.70
44431;DHT22;30135;47.866;-4.222;2022-09-02T07:21:44;19.80;93.70
44431;DHT22;30135;47.866;-4.222;2022-09-02T07:24:13;19.90;93.70
44431;DHT22;30135;47.866;-4.222;2022-09-02T07:26:40;19.80;93.60
44431;DHT22;30135;47.866;-4.222;2022-09-02T07:29:07;19.90;94.00
44431;DHT22;30135;47.866;-4.222;2022-09-02T07:31:39;19.90;93.70
44431;DHT22;30135;47.866;-4.222;2022-09-02T07:34:06;19.90;93.70
44431;DHT22;30135;47.866;-4.222;2022-09-02T07:36:36;19.90;93.60
44431;DHT22;30135;47.866;-4.222;2022-09-02T07:39:08;19.90;93.60
44431;DHT22;30135;47.866;-4.222;2022-09-02T07:41:37;19.90;93.60
44431;DHT22;30135;47.866;-4.222;2022-09-02T07:44:05;19.90;93.50
44431;DHT22;30135;47.866;-4.222;2022-09-02T07:46:32;19.90;93.40
44431;DHT22;30135;47.866;-4.222;2022-09-02T07:48:59;19.90;93.40
44431;DHT22;30135;47.866;-4.222;2022-09-02T07:51:26;19.90;93.50
44431;DHT22;30135;47.866;-4.222;2022-09-02T07:53:52;19.90;93.60
44431;DHT22;30135;47.866;-4.222;2022-09-02T07:56:22;19.90;93.60
44431;DHT22;30135;47.866;-4.222;2022-09-02T07:58:48;19.90;93.60
44431;DHT22;30135;47.866;-4.222;2022-09-02T08:01:16;19.90;93.50
44431;DHT22;30135;47.866;-4.222;2022-09-02T08:03:42;19.90;93.60
44431;DHT22;30135;47.866;-4.222;2022-09-02T08:06:11;19.90;93.60
44431;DHT22;30135;47.866;-4.222;2022-09-02T08:08:39;19.90;93.50
44431;DHT22;30135;47.866;-4.222;2022-09-02T08:11:06;19.90;93.50
44431;DHT22;30135;47.866;-4.222;2022-09-02T08:13:33;19.90;93.50
44431;DHT22;30135;47.866;-4.222;2022-09-02T08:16:01;19.90;93.50
44431;DHT22;30135;47.866;-4.222;2022-09-02T08:18:29;19.90;93.40
44431;DHT22;30135;47.866;-4.222;2022-09-02T08:20:55;20.00;93.50
44431;DHT22;30135;47.866;-4.222;2022-09-02T08:23:22;20.00;93.50
44431;DHT22;30135;47.866;-4.222;2022-09-02T08:25:48;20.00;93.40
44431;DHT22;30135;47.866;-4.222;2022-09-02T08:28:27;20.00;93.20
44431;DHT22;30135;47.866;-4.222;2022-09-02T08:30:56;20.00;92.90
44431;DHT22;30135;47.866;-4.222;2022-09-02T08:33:24;20.10;93.00
44431;DHT22;30135;47.866;-4.222;2022-09-02T08:35:51;20.10;93.10
44431;DHT22;30135;47.866;-4.222;2022-09-02T08:38:19;20.10;93.20
44431;DHT22;30135;47.866;-4.222;2022-09-02T08:40:47;20.10;93.30
44431;DHT22;30135;47.866;-4.222;2022-09-02T08:43:42;20.10;93.40
44431;DHT22;30135;47.866;-4.222;2022-09-02T08:46:11;20.20;93.70
44431;DHT22;30135;47.866;-4.222;2022-09-02T08:51:32;20.20;93.80
44431;DHT22;30135;47.866;-4.222;2022-09-02T08:56:59;20.20;94.00
44431;DHT22;30135;47.866;-4.222;2022-09-02T08:59:26;20.20;94.10
44431;DHT22;30135;47.866;-4.222;2022-09-02T09:05:48;20.30;94.50
44431;DHT22;30135;47.866;-4.222;2022-09-02T09:14:26;20.30;94.40
44431;DHT22;30135;47.866;-4.222;2022-09-02T09:17:21;20.40;94.70
44431;DHT22;30135;47.866;-4.222;2022-09-02T09:19:54;20.40;94.60
44431;DHT22;30135;47.866;-4.222;2022-09-02T09:22:33;20.40;94.60
44431;DHT22;30135;47.866;-4.222;2022-09-02T09:25:08;20.40;94.90
44431;DHT22;30135;47.866;-4.222;2022-09-02T09:27:37;20.50;94.90
44431;DHT22;30135;47.866;-4.222;2022-09-02T09:30:06;20.50;94.90
44431;DHT22;30135;47.866;-4.222;2022-09-02T09:32:46;20.50;95.00
44431;DHT22;30135;47.866;-4.222;2022-09-02T09:35:20;20.60;95.20
44431;DHT22;30135;47.866;-4.222;2022-09-02T09:37:50;20.70;95.10
44431;DHT22;30135;47.866;-4.222;2022-09-02T09:40:30;20.70;95.10
44431;DHT22;30135;47.866;-4.222;2022-09-02T09:45:37;20.80;95.00
44431;DHT22;30135;47.866;-4.222;2022-09-02T09:50:39;20.90;94.90
44431;DHT22;30135;47.866;-4.222;2022-09-02T09:53:33;21.00;94.80
44431;DHT22;30135;47.866;-4.222;2022-09-02T09:56:04;21.00;94.60
44431;DHT22;30135;47.866;-4.222;2022-09-02T10:01:24;21.00;94.50
44431;DHT22;30135;47.866;-4.222;2022-09-02T10:09:23;21.10;94.10
44431;DHT22;30135;47.866;-4.222;2022-09-02T10:12:00;21.10;94.10
44431;DHT22;30135;47.866;-4.222;2022-09-02T10:14:43;21.10;94.10
44431;DHT22;30135;47.866;-4.222;2022-09-02T10:21:34;21.20;93.90
44431;DHT22;30135;47.866;-4.222;2022-09-02T10:35:41;21.40;93.60
44431;DHT22;30135;47.866;-4.222;2022-09-02T10:38:45;21.40;93.50
44431;DHT22;30135;47.866;-4.222;2022-09-02T10:41:38;21.40;93.50
44431;DHT22;30135;47.866;-4.222;2022-09-02T10:44:38;21.40;93.50
44431;DHT22;30135;47.866;-4.222;2022-09-02T10:47:40;21.40;93.50
44431;DHT22;30135;47.866;-4.222;2022-09-02T10:56:19;21.50;93.30
44431;DHT22;30135;47.866;-4.222;2022-09-02T10:59:17;21.50;93.30
44431;DHT22;30135;47.866;-4.222;2022-09-02T11:02:15;21.60;93.50
44431;DHT22;30135;47.866;-4.222;2022-09-02T11:08:11;21.70;92.80
44431;DHT22;30135;47.866;-4.222;2022-09-02T11:14:36;21.80;92.80
44431;DHT22;30135;47.866;-4.222;2022-09-02T11:23:49;21.80;92.20
44431;DHT22;30135;47.866;-4.222;2022-09-02T11:32:42;21.60;92.30
44431;DHT22;30135;47.866;-4.222;2022-09-02T11:35:23;21.70;92.50
44431;DHT22;30135;47.866;-4.222;2022-09-02T11:38:02;21.60;92.50
44431;DHT22;30135;47.866;-4.222;2022-09-02T11:46:47;21.60;92.40
44431;DHT22;30135;47.866;-4.222;2022-09-02T11:49:50;21.60;92.30
44431;DHT22;30135;47.866;-4.222;2022-09-02T11:52:50;21.60;92.30
44431;DHT22;30135;47.866;-4.222;2022-09-02T11:55:30;21.50;92.30
44431;DHT22;30135;47.866;-4.222;2022-09-02T11:58:01;21.50;92.30
44431;DHT22;30135;47.866;-4.222;2022-09-02T12:00:34;21.50;92.30
44431;DHT22;30135;47.866;-4.222;2022-09-02T12:03:32;21.50;92.20
44431;DHT22;30135;47.866;-4.222;2022-09-02T12:06:14;21.40;92.10
44431;DHT22;30135;47.866;-4.222;2022-09-02T12:14:09;21.40;92.10
44431;DHT22;30135;47.866;-4.222;2022-09-02T12:19:43;21.40;92.30
44431;DHT22;30135;47.866;-4.222;2022-09-02T12:25:01;21.50;92.50
44431;DHT22;30135;47.866;-4.222;2022-09-02T12:27:33;21.60;92.60
44431;DHT22;30135;47.866;-4.222;2022-09-02T12:30:09;21.80;92.50
44431;DHT22;30135;47.866;-4.222;2022-09-02T12:35:47;21.80;92.20
44431;DHT22;30135;47.866;-4.222;2022-09-02T12:38:23;21.90;91.90
44431;DHT22;30135;47.866;-4.222;2022-09-02T12:41:23;21.90;91.80
44431;DHT22;30135;47.866;-4.222;2022-09-02T12:50:02;21.80;91.50
44431;DHT22;30135;47.866;-4.222;2022-09-02T12:55:22;21.80;91.50
44431;DHT22;30135;47.866;-4.222;2022-09-02T12:57:54;21.90;91.50
44431;DHT22;30135;47.866;-4.222;2022-09-02T13:30:00;23.00;90.20
44431;DHT22;30135;47.866;-4.222;2022-09-02T13:32:30;23.00;89.30
44431;DHT22;30135;47.866;-4.222;2022-09-02T13:35:03;23.00;89.20
44431;DHT22;30135;47.866;-4.222;2022-09-02T13:37:42;23.00;88.40
44431;DHT22;30135;47.866;-4.222;2022-09-02T13:40:24;23.00;88.30
44431;DHT22;30135;47.866;-4.222;2022-09-02T13:42:57;22.80;87.40
44431;DHT22;30135;47.866;-4.222;2022-09-02T13:45:50;22.70;88.00
44431;DHT22;30135;47.866;-4.222;2022-09-02T13:50:55;22.60;88.50
44431;DHT22;30135;47.866;-4.222;2022-09-02T13:53:26;22.60;88.60
44431;DHT22;30135;47.866;-4.222;2022-09-02T13:55:55;22.50;88.40
44431;DHT22;30135;47.866;-4.222;2022-09-02T14:00:57;22.40;88.00
44431;DHT22;30135;47.866;-4.222;2022-09-02T14:03:45;22.50;88.30
44431;DHT22;30135;47.866;-4.222;2022-09-02T14:06:15;22.50;88.20
44431;DHT22;30135;47.866;-4.222;2022-09-02T14:08:43;22.50;88.30
44431;DHT22;30135;47.866;-4.222;2022-09-02T14:11:14;22.60;88.40
44431;DHT22;30135;47.866;-4.222;2022-09-02T14:13:45;22.70;87.80
44431;DHT22;30135;47.866;-4.222;2022-09-02T14:16:26;22.70;87.40
44431;DHT22;30135;47.866;-4.222;2022-09-02T14:19:10;22.70;86.30
44431;DHT22;30135;47.866;-4.222;2022-09-02T14:21:50;22.70;85.90
44431;DHT22;30135;47.866;-4.222;2022-09-02T14:24:22;22.70;85.00
44431;DHT22;30135;47.866;-4.222;2022-09-02T14:26:50;22.70;85.40
44431;DHT22;30135;47.866;-4.222;2022-09-02T14:29:19;22.70;85.10
44431;DHT22;30135;47.866;-4.222;2022-09-02T14:32:01;22.70;84.90
44431;DHT22;30135;47.866;-4.222;2022-09-02T14:34:43;22.70;84.50
44431;DHT22;30135;47.866;-4.222;2022-09-02T14:37:25;22.70;84.30
44431;DHT22;30135;47.866;-4.222;2022-09-02T14:40:10;22.70;83.90
44431;DHT22;30135;47.866;-4.222;2022-09-02T14:42:50;22.70;84.80
44431;DHT22;30135;47.866;-4.222;2022-09-02T14:47:52;22.80;84.50
44431;DHT22;30135;47.866;-4.222;2022-09-02T14:50:22;22.80;83.60
44431;DHT22;30135;47.866;-4.222;2022-09-02T14:53:04;22.90;83.40
44431;DHT22;30135;47.866;-4.222;2022-09-02T14:58:16;22.80;82.20
44431;DHT22;30135;47.866;-4.222;2022-09-02T15:00:47;22.80;82.70
44431;DHT22;30135;47.866;-4.222;2022-09-02T15:03:23;22.80;82.70
44431;DHT22;30135;47.866;-4.222;2022-09-02T15:05:50;22.80;82.50
44431;DHT22;30135;47.866;-4.222;2022-09-02T15:08:18;22.70;82.40
44431;DHT22;30135;47.866;-4.222;2022-09-02T15:10:46;22.70;82.30
44431;DHT22;30135;47.866;-4.222;2022-09-02T15:13:38;22.70;82.10
44431;DHT22;30135;47.866;-4.222;2022-09-02T15:16:04;22.70;81.90
44431;DHT22;30135;47.866;-4.222;2022-09-02T15:18:30;22.70;81.90
44431;DHT22;30135;47.866;-4.222;2022-09-02T15:20:56;22.70;81.90
44431;DHT22;30135;47.866;-4.222;2022-09-02T15:23:23;22.80;82.00
44431;DHT22;30135;47.866;-4.222;2022-09-02T15:25:49;22.80;81.50
44431;DHT22;30135;47.866;-4.222;2022-09-02T15:28:16;22.90;81.60
44431;DHT22;30135;47.866;-4.222;2022-09-02T15:30:43;22.90;82.40
44431;DHT22;30135;47.866;-4.222;2022-09-02T15:33:09;23.00;81.40
44431;DHT22;30135;47.866;-4.222;2022-09-02T15:35:35;23.00;80.70
44431;DHT22;30135;47.866;-4.222;2022-09-02T15:38:03;23.10;80.50
44431;DHT22;30135;47.866;-4.222;2022-09-02T15:40:30;23.10;80.70
44431;DHT22;30135;47.866;-4.222;2022-09-02T15:42:57;23.20;81.20
44431;DHT22;30135;47.866;-4.222;2022-09-02T15:45:24;23.20;80.70
44431;DHT22;30135;47.866;-4.222;2022-09-02T15:47:52;23.20;80.70
44431;DHT22;30135;47.866;-4.222;2022-09-02T15:50:22;23.20;80.60
44431;DHT22;30135;47.866;-4.222;2022-09-02T15:52:49;23.30;80.80
44431;DHT22;30135;47.866;-4.222;2022-09-02T15:55:16;23.30;80.80
44431;DHT22;30135;47.866;-4.222;2022-09-02T15:57:43;23.40;80.80
44431;DHT22;30135;47.866;-4.222;2022-09-02T16:00:10;23.30;80.50
44431;DHT22;30135;47.866;-4.222;2022-09-02T16:02:38;23.30;80.30
44431;DHT22;30135;47.866;-4.222;2022-09-02T16:05:05;23.20;80.20
44431;DHT22;30135;47.866;-4.222;2022-09-02T16:07:43;23.20;80.30
44431;DHT22;30135;47.866;-4.222;2022-09-02T16:10:11;23.20;80.60
44431;DHT22;30135;47.866;-4.222;2022-09-02T16:12:39;23.20;80.70
44431;DHT22;30135;47.866;-4.222;2022-09-02T16:15:08;23.10;80.70
44431;DHT22;30135;47.866;-4.222;2022-09-02T16:17:36;23.10;80.60
44431;DHT22;30135;47.866;-4.222;2022-09-02T16:20:03;23.10;80.90
44431;DHT22;30135;47.866;-4.222;2022-09-02T16:22:30;23.10;81.00
44431;DHT22;30135;47.866;-4.222;2022-09-02T16:24:56;23.00;81.00
44431;DHT22;30135;47.866;-4.222;2022-09-02T16:27:24;23.00;81.00
44431;DHT22;30135;47.866;-4.222;2022-09-02T16:30:10;23.00;81.20
44431;DHT22;30135;47.866;-4.222;2022-09-02T16:32:37;22.90;81.20
44431;DHT22;30135;47.866;-4.222;2022-09-02T16:35:03;22.90;81.50
44431;DHT22;30135;47.866;-4.222;2022-09-02T16:37:30;22.90;81.60
44431;DHT22;30135;47.866;-4.222;2022-09-02T16:39:56;22.90;82.00
44431;DHT22;30135;47.866;-4.222;2022-09-02T16:42:23;22.90;81.90
44431;DHT22;30135;47.866;-4.222;2022-09-02T16:44:51;22.90;81.70
44431;DHT22;30135;47.866;-4.222;2022-09-02T16:47:18;22.90;82.70
44431;DHT22;30135;47.866;-4.222;2022-09-02T16:49:44;22.90;81.90
44431;DHT22;30135;47.866;-4.222;2022-09-02T16:52:10;22.80;81.70
44431;DHT22;30135;47.866;-4.222;2022-09-02T16:54:37;22.80;81.60
44431;DHT22;30135;47.866;-4.222;2022-09-02T16:57:04;22.80;81.60
44431;DHT22;30135;47.866;-4.222;2022-09-02T16:59:31;22.70;81.60
44431;DHT22;30135;47.866;-4.222;2022-09-02T17:01:58;22.70;81.70
44431;DHT22;30135;47.866;-4.222;2022-09-02T17:04:25;22.70;81.90
44431;DHT22;30135;47.866;-4.222;2022-09-02T17:06:53;22.60;82.00
44431;DHT22;30135;47.866;-4.222;2022-09-02T17:09:24;22.60;81.90
44431;DHT22;30135;47.866;-4.222;2022-09-02T17:11:51;22.50;81.90
44431;DHT22;30135;47.866;-4.222;2022-09-02T17:14:18;22.50;82.00
44431;DHT22;30135;47.866;-4.222;2022-09-02T17:16:48;22.40;82.00
44431;DHT22;30135;47.866;-4.222;2022-09-02T17:19:17;22.40;82.10
44431;DHT22;30135;47.866;-4.222;2022-09-02T17:21:51;22.30;82.20
44431;DHT22;30135;47.866;-4.222;2022-09-02T17:24:21;22.30;82.40
44431;DHT22;30135;47.866;-4.222;2022-09-02T17:26:51;22.20;82.50
44431;DHT22;30135;47.866;-4.222;2022-09-02T17:29:21;22.20;82.70
44431;DHT22;30135;47.866;-4.222;2022-09-02T17:31:49;22.20;82.70
44431;DHT22;30135;47.866;-4.222;2022-09-02T17:34:15;22.10;82.80
44431;DHT22;30135;47.866;-4.222;2022-09-02T17:36:42;22.10;82.80
44431;DHT22;30135;47.866;-4.222;2022-09-02T17:39:14;22.10;82.90
44431;DHT22;30135;47.866;-4.222;2022-09-02T17:41:44;22.00;83.00
44431;DHT22;30135;47.866;-4.222;2022-09-02T17:44:30;22.00;83.10
44431;DHT22;30135;47.866;-4.222;2022-09-02T17:47:16;22.00;83.00
44431;DHT22;30135;47.866;-4.222;2022-09-02T17:49:45;21.90;83.20
44431;DHT22;30135;47.866;-4.222;2022-09-02T17:52:14;21.90;83.30
44431;DHT22;30135;47.866;-4.222;2022-09-02T17:54:58;21.90;83.40
44431;DHT22;30135;47.866;-4.222;2022-09-02T17:57:46;21.80;83.60
44431;DHT22;30135;47.866;-4.222;2022-09-02T18:00:22;21.80;83.50
44431;DHT22;30135;47.866;-4.222;2022-09-02T18:06:10;21.70;84.00